createdAt,value
2023-03-11T00:02:24.785Z,6.97
2023-03-11T00:04:56.825Z,3.28
2023-03-11T00:07:28.653Z,7.18
2023-03-11T00:10:01.107Z,7.63
2023-03-11T00:12:32.941Z,6.78
2023-03-11T00:15:05.181Z,7.93
2023-03-11T00:17:37.079Z,7.40
2023-03-11T00:20:16.314Z,4.75
2023-03-11T00:22:48.847Z,7.47
2023-03-11T00:25:22.571Z,6.88
2023-03-11T00:27:54.797Z,6.22
2023-03-11T00:30:27.855Z,4.95
2023-03-11T00:33:00.434Z,5.85
2023-03-11T00:35:34.570Z,7.40
2023-03-11T00:38:08.929Z,6.40
2023-03-11T00:40:41.338Z,5.47
2023-03-11T00:43:13.378Z,7.03
2023-03-11T00:45:45.289Z,4.18
2023-03-11T00:48:17.153Z,7.70
2023-03-11T00:50:49.092Z,7.43
2023-03-11T00:53:20.939Z,3.70
2023-03-11T00:55:52.834Z,4.30
2023-03-11T00:58:28.203Z,3.42
2023-03-11T01:01:09.520Z,5.05
2023-03-11T01:03:42.414Z,5.90
2023-03-11T01:06:15.845Z,4.13
2023-03-11T01:08:47.818Z,4.03
2023-03-11T01:11:19.741Z,3.95
2023-03-11T01:13:51.680Z,3.60
2023-03-11T01:16:23.574Z,3.55
2023-03-11T01:18:55.501Z,4.13
2023-03-11T01:21:27.333Z,3.88
2023-03-11T01:23:59.126Z,5.03
2023-03-11T01:26:31.112Z,5.47
2023-03-11T01:29:03.073Z,7.50
2023-03-11T01:31:35.449Z,5.38
2023-03-11T01:34:07.886Z,6.28
2023-03-11T01:36:39.736Z,5.90
2023-03-11T01:39:11.530Z,6.93
2023-03-11T01:41:43.301Z,6.03
2023-03-11T01:44:15.511Z,5.43
2023-03-11T01:46:54.185Z,8.25
2023-03-11T01:49:33.538Z,13.02
2023-03-11T01:52:07.981Z,9.93
2023-03-11T01:54:46.352Z,9.15
2023-03-11T01:57:18.790Z,7.88
2023-03-11T01:59:55.895Z,9.52
2023-03-11T02:02:42.868Z,7.65
2023-03-11T02:05:15.613Z,6.25
2023-03-11T02:07:49.009Z,8.38
2023-03-11T02:10:23.022Z,8.38
2023-03-11T02:12:54.898Z,10.45
2023-03-11T02:15:33.176Z,11.35
2023-03-11T02:18:07.029Z,7.72
2023-03-11T02:20:48.564Z,6.13
2023-03-11T02:26:04.537Z,5.95
2023-03-11T02:28:38.384Z,5.18
2023-03-11T02:31:11.073Z,10.32
2023-03-11T02:33:45.822Z,8.27
2023-03-11T02:36:40.793Z,9.85
2023-03-11T02:39:15.479Z,8.07
2023-03-11T02:41:47.656Z,9.20
2023-03-11T02:44:19.489Z,10.25
2023-03-11T02:46:52.654Z,7.63
2023-03-11T02:49:24.818Z,7.47
2023-03-11T02:51:56.626Z,6.70
2023-03-11T02:54:28.560Z,6.80
2023-03-11T02:57:02.140Z,6.68
2023-03-11T02:59:34.403Z,6.15
2023-03-11T03:02:07.098Z,6.40
2023-03-11T03:04:39.230Z,5.78
2023-03-11T03:07:11.987Z,3.90
2023-03-11T03:09:43.817Z,8.45
2023-03-11T03:12:15.670Z,5.82
2023-03-11T03:14:48.030Z,6.47
2023-03-11T03:17:21.562Z,7.13
2023-03-11T03:19:53.454Z,6.50
2023-03-11T03:22:27.514Z,5.38
2023-03-11T03:24:59.932Z,3.40
2023-03-11T03:27:31.971Z,3.70
2023-03-11T03:30:05.221Z,6.03
2023-03-11T03:32:37.791Z,5.25
2023-03-11T03:35:11.648Z,7.30
2023-03-11T03:38:03.822Z,3.60
2023-03-11T03:40:36.747Z,4.80
2023-03-11T03:43:10.582Z,4.57
2023-03-11T03:45:57.694Z,5.55
2023-03-11T03:48:31.983Z,8.52
2023-03-11T03:51:09.364Z,4.03
2023-03-11T03:53:46.553Z,3.25
2023-03-11T03:56:19.533Z,5.13
2023-03-11T03:58:51.425Z,7.20
2023-03-11T04:01:23.624Z,6.82
2023-03-11T04:03:55.594Z,4.68
2023-03-11T04:06:28.151Z,6.78
2023-03-11T04:09:04.880Z,5.40
2023-03-11T04:11:39.719Z,6.95
2023-03-11T04:14:12.516Z,4.25
2023-03-11T04:16:50.405Z,4.43
2023-03-11T04:19:22.281Z,5.85
2023-03-11T04:21:54.367Z,7.22
2023-03-11T04:24:27.834Z,4.43
2023-03-11T04:26:59.827Z,7.55
2023-03-11T04:29:31.686Z,6.00
2023-03-11T04:32:03.789Z,6.30
2023-03-11T04:34:36.274Z,3.50
2023-03-11T04:37:09.020Z,3.25
2023-03-11T04:39:42.032Z,5.68
2023-03-11T04:42:14.285Z,4.75
2023-03-11T04:44:48.722Z,4.13
2023-03-11T04:47:21.975Z,3.72
2023-03-11T04:49:56.093Z,5.32
2023-03-11T04:52:28.033Z,3.80
2023-03-11T04:55:00.395Z,4.70
2023-03-11T04:57:32.378Z,5.72
2023-03-11T05:00:10.756Z,8.60
2023-03-11T05:02:43.343Z,5.05
2023-03-11T05:05:16.769Z,4.82
2023-03-11T05:07:49.530Z,5.30
2023-03-11T05:10:24.645Z,5.95
2023-03-11T05:13:00.318Z,5.05
2023-03-11T05:15:37.581Z,4.72
2023-03-11T05:18:10.828Z,5.63
2023-03-11T05:20:44.084Z,6.95
2023-03-11T05:23:17.582Z,7.82
2023-03-11T05:25:49.585Z,4.28
2023-03-11T05:28:21.578Z,7.18
2023-03-11T05:30:57.003Z,6.72
2023-03-11T05:33:35.246Z,5.63
2023-03-11T05:36:09.909Z,4.97
2023-03-11T05:38:44.617Z,7.65
2023-03-11T05:41:18.836Z,7.30
2023-03-11T05:43:51.078Z,4.90
2023-03-11T05:46:23.121Z,25.67
2023-03-11T05:48:55.232Z,31.58
2023-03-11T05:51:27.895Z,8.63
2023-03-11T05:54:00.798Z,7.25
2023-03-11T05:56:45.689Z,7.65
2023-03-11T05:59:18.498Z,6.05
2023-03-11T06:01:55.284Z,7.57
2023-03-11T06:04:28.823Z,5.50
2023-03-11T06:07:01.549Z,6.63
2023-03-11T06:09:37.067Z,5.97
2023-03-11T06:12:10.506Z,9.60
2023-03-11T06:15:09.025Z,6.07
2023-03-11T06:17:41.739Z,6.90
2023-03-11T06:20:14.262Z,5.97
2023-03-11T06:22:49.892Z,6.55
2023-03-11T06:25:22.852Z,4.60
2023-03-11T06:27:55.050Z,7.10
2023-03-11T06:30:28.187Z,17.75
2023-03-11T06:33:07.854Z,16.92
2023-03-11T06:35:41.492Z,20.02
2023-03-11T06:38:13.897Z,24.33
2023-03-11T06:40:45.830Z,15.07
2023-03-11T06:43:17.843Z,14.70
2023-03-11T06:45:50.853Z,7.53
2023-03-11T06:48:22.939Z,10.07
2023-03-11T06:51:00.033Z,8.65
2023-03-11T06:53:34.534Z,5.53
2023-03-11T06:56:12.684Z,7.55
2023-03-11T06:58:50.308Z,10.75
2023-03-11T07:01:24.770Z,7.25
2023-03-11T07:03:58.381Z,7.95
2023-03-11T07:06:31.331Z,15.85
2023-03-11T07:09:11.273Z,67.03
2023-03-11T07:11:47.097Z,11.50
2023-03-11T07:14:24.239Z,23.42
2023-03-11T07:16:59.952Z,5.30
2023-03-11T07:19:42.867Z,5.78
2023-03-11T07:22:15.506Z,7.07
2023-03-11T07:24:50.490Z,7.25
2023-03-11T07:27:23.145Z,5.80
2023-03-11T07:29:55.102Z,7.65
2023-03-11T07:32:26.889Z,7.95
2023-03-11T07:34:58.832Z,6.65
2023-03-11T07:37:30.641Z,6.45
2023-03-11T07:40:02.495Z,7.57
2023-03-11T07:42:34.905Z,5.78
2023-03-11T07:45:07.369Z,11.13
2023-03-11T07:47:39.244Z,8.57
2023-03-11T07:50:11.568Z,10.48
2023-03-11T07:52:44.205Z,7.03
2023-03-11T07:55:16.468Z,7.53
2023-03-11T07:57:49.387Z,8.50
2023-03-11T08:00:21.584Z,8.02
2023-03-11T08:02:53.402Z,6.63
2023-03-11T08:05:25.207Z,11.85
2023-03-11T08:07:56.982Z,10.35
2023-03-11T08:10:28.881Z,12.75
2023-03-11T08:13:00.745Z,11.57
2023-03-11T08:15:32.627Z,8.57
2023-03-11T08:18:05.349Z,12.90
2023-03-11T08:20:39.977Z,12.43
2023-03-11T08:23:11.883Z,15.02
2023-03-11T08:25:43.711Z,12.07
2023-03-11T08:28:16.148Z,12.13
2023-03-11T08:30:48.157Z,12.23
2023-03-11T08:33:19.987Z,16.98
2023-03-11T08:35:52.053Z,15.40
2023-03-11T08:38:24.001Z,12.25
2023-03-11T08:40:55.814Z,15.82
2023-03-11T08:43:27.764Z,15.00
2023-03-11T08:46:07.013Z,11.98
2023-03-11T08:48:39.156Z,13.93
2023-03-11T08:51:12.402Z,10.32
2023-03-11T08:53:44.424Z,9.95
2023-03-11T08:56:16.569Z,10.43
2023-03-11T08:58:49.172Z,11.23
2023-03-11T09:01:21.034Z,13.07
2023-03-11T09:03:53.063Z,14.38
2023-03-11T09:06:25.542Z,18.48
2023-03-11T09:08:57.766Z,13.95
2023-03-11T09:11:30.019Z,12.50
2023-03-11T09:14:01.846Z,15.15
2023-03-11T09:16:33.735Z,13.57
2023-03-11T09:19:07.438Z,10.85
2023-03-11T09:21:39.496Z,14.70
2023-03-11T09:24:11.395Z,12.93
2023-03-11T09:26:43.197Z,14.30
2023-03-11T09:29:15.041Z,11.32
2023-03-11T09:31:47.797Z,14.70
2023-03-11T09:34:19.899Z,10.77
2023-03-11T09:36:51.732Z,12.07
2023-03-11T09:39:23.615Z,14.20
2023-03-11T09:42:02.101Z,12.18
2023-03-11T09:44:42.885Z,13.68
2023-03-11T09:47:29.848Z,13.30
2023-03-11T09:50:07.656Z,12.75
2023-03-11T09:53:01.120Z,17.55
2023-03-11T09:55:44.587Z,17.05
2023-03-11T09:58:30.581Z,15.55
2023-03-11T10:01:08.962Z,13.52
2023-03-11T10:03:40.963Z,17.52
2023-03-11T10:06:24.709Z,16.52
2023-03-11T10:09:39.254Z,18.10
2023-03-11T10:12:25.038Z,15.73
2023-03-11T10:15:15.317Z,17.48
2023-03-11T10:18:10.249Z,17.63
2023-03-11T10:21:06.466Z,17.90
2023-03-11T10:23:51.333Z,17.55
2023-03-11T10:26:31.369Z,16.38
2023-03-11T10:29:22.001Z,16.23
2023-03-11T10:32:27.165Z,17.52
2023-03-11T10:35:19.649Z,17.20
2023-03-11T10:38:03.276Z,19.52
2023-03-11T10:40:38.606Z,15.82
2023-03-11T10:43:34.962Z,18.63
2023-03-11T10:46:25.336Z,19.23
2023-03-11T10:48:57.522Z,19.30
2023-03-11T10:51:35.054Z,18.40
2023-03-11T10:54:06.995Z,18.58
2023-03-11T10:56:40.869Z,18.08
2023-03-11T10:59:28.161Z,22.08
2023-03-11T11:02:17.911Z,18.63
2023-03-11T11:05:23.254Z,23.58
2023-03-11T11:08:14.147Z,22.83
2023-03-11T11:10:57.536Z,25.58
2023-03-11T11:13:37.232Z,21.08
2023-03-11T11:16:20.911Z,21.45
2023-03-11T11:19:15.464Z,22.02
2023-03-11T11:21:52.385Z,19.65
2023-03-11T11:24:27.845Z,10.95
2023-03-11T11:27:19.475Z,21.35
2023-03-11T11:30:24.035Z,23.02
2023-03-11T11:32:56.272Z,20.33
2023-03-11T11:35:28.113Z,18.77
2023-03-11T11:38:04.208Z,18.50
2023-03-11T11:40:36.328Z,19.80
2023-03-11T11:43:49.886Z,23.75
2023-03-11T11:46:42.402Z,18.30
2023-03-11T11:49:27.392Z,24.50
2023-03-11T11:52:11.759Z,20.65
2023-03-11T11:54:58.910Z,20.67
2023-03-11T11:57:31.518Z,20.38
2023-03-11T12:00:05.951Z,21.00
2023-03-11T12:02:50.539Z,20.23
2023-03-11T12:05:25.957Z,21.27
2023-03-11T12:08:07.266Z,19.75
2023-03-11T12:13:36.335Z,19.92
2023-03-11T12:16:30.291Z,18.52
2023-03-11T12:19:13.564Z,18.02
2023-03-11T12:22:03.416Z,17.88
2023-03-11T12:25:12.782Z,20.42
2023-03-11T12:28:04.883Z,20.65
2023-03-11T12:30:43.996Z,20.20
2023-03-11T12:33:30.315Z,18.95
2023-03-11T12:36:03.109Z,22.08
2023-03-11T12:38:38.827Z,16.83
2023-03-11T12:41:13.665Z,23.80
2023-03-11T12:43:57.738Z,16.10
2023-03-11T12:47:03.879Z,32.38
2023-03-11T12:49:43.237Z,18.52
2023-03-11T12:52:19.966Z,20.80
2023-03-11T12:55:01.183Z,21.33
2023-03-11T12:57:48.459Z,18.95
2023-03-11T13:01:01.028Z,18.15
2023-03-11T13:03:51.360Z,16.95
2023-03-11T13:06:40.771Z,20.95
2023-03-11T13:09:16.248Z,18.08
2023-03-11T13:11:49.238Z,18.20
2023-03-11T13:14:28.410Z,18.52
2023-03-11T13:17:31.299Z,17.42
2023-03-11T13:20:04.304Z,18.38
2023-03-11T13:22:54.954Z,17.65
2023-03-11T13:25:35.051Z,18.60
2023-03-11T13:28:27.903Z,16.20
2023-03-11T13:31:24.701Z,19.00
2023-03-11T13:34:22.463Z,19.27
2023-03-11T13:37:25.398Z,21.25
2023-03-11T13:40:02.482Z,19.48
2023-03-11T13:42:42.237Z,16.77
2023-03-11T13:45:26.652Z,17.88
2023-03-11T13:48:15.975Z,18.35
2023-03-11T13:51:12.396Z,16.83
2023-03-11T13:54:06.749Z,16.35
2023-03-11T13:56:45.096Z,18.67
2023-03-11T13:59:28.936Z,17.90
2023-03-11T14:02:23.613Z,15.45
2023-03-11T14:05:05.359Z,17.02
2023-03-11T14:07:38.664Z,19.80
2023-03-11T14:10:30.264Z,18.73
2023-03-11T14:13:17.270Z,20.67
2023-03-11T14:15:59.448Z,20.27
2023-03-11T14:18:35.511Z,21.50
2023-03-11T14:21:16.800Z,18.42
2023-03-11T14:26:29.802Z,20.98
2023-03-11T14:29:08.963Z,19.23
2023-03-11T14:31:44.056Z,20.05
2023-03-11T14:34:21.853Z,16.10
2023-03-11T14:36:59.135Z,19.67
2023-03-11T14:39:32.180Z,22.00
2023-03-11T14:42:21.596Z,16.00
2023-03-11T14:45:06.195Z,17.52
2023-03-11T14:48:03.317Z,19.17
2023-03-11T14:50:36.925Z,14.77
2023-03-11T14:53:17.535Z,15.57
2023-03-11T14:56:14.911Z,16.70
2023-03-11T14:59:07.177Z,17.50
2023-03-11T15:01:42.184Z,17.08
2023-03-11T15:04:28.438Z,17.77
2023-03-11T15:07:04.211Z,16.48
2023-03-11T15:09:40.532Z,18.20
2023-03-11T15:12:34.980Z,19.65
2023-03-11T15:15:30.429Z,18.45
2023-03-11T15:18:02.971Z,23.08
2023-03-11T15:20:37.059Z,19.38
2023-03-11T15:23:21.698Z,18.55
2023-03-11T15:25:53.620Z,18.92
2023-03-11T15:28:29.514Z,16.73
2023-03-11T15:31:23.661Z,15.93
2023-03-11T15:33:56.788Z,17.75
2023-03-11T15:36:40.343Z,15.65
2023-03-11T15:39:38.454Z,16.45
2023-03-11T15:42:19.637Z,17.70
2023-03-11T15:45:04.996Z,17.08
2023-03-11T15:47:37.966Z,19.20
2023-03-11T15:50:24.440Z,19.35
2023-03-11T15:52:58.384Z,19.30
2023-03-11T15:55:30.234Z,19.27
2023-03-11T15:58:09.221Z,20.45
2023-03-11T16:00:47.403Z,19.08
2023-03-11T16:03:19.766Z,21.10
2023-03-11T16:05:51.679Z,18.60
2023-03-11T16:08:23.467Z,21.88
2023-03-11T16:10:55.369Z,21.40
2023-03-11T16:13:27.177Z,20.77
2023-03-11T16:15:59.141Z,23.77
2023-03-11T16:18:31.087Z,18.88
2023-03-11T16:21:08.529Z,21.35
2023-03-11T16:23:51.090Z,18.83
2023-03-11T16:26:24.048Z,17.67
2023-03-11T16:28:57.324Z,18.70
2023-03-11T16:31:32.133Z,17.77
2023-03-11T16:34:04.002Z,19.45
2023-03-11T16:36:35.878Z,18.95
2023-03-11T16:39:07.690Z,15.77
2023-03-11T16:41:42.637Z,18.33
2023-03-11T16:44:14.469Z,19.98
2023-03-11T16:46:46.252Z,20.88
2023-03-11T16:49:18.257Z,16.67
2023-03-11T16:51:50.286Z,24.15
2023-03-11T16:54:22.280Z,19.05
2023-03-11T16:56:55.250Z,22.10
2023-03-11T16:59:30.294Z,19.48
2023-03-11T17:02:02.728Z,20.13
2023-03-11T17:04:38.531Z,18.10
2023-03-11T17:07:16.325Z,24.77
2023-03-11T17:09:48.145Z,25.10
2023-03-11T17:12:20.012Z,27.58
2023-03-11T17:14:53.235Z,24.90
2023-03-11T17:17:25.866Z,19.50
2023-03-11T17:20:01.443Z,22.73
2023-03-11T17:22:33.530Z,19.30
2023-03-11T17:25:06.368Z,21.13
2023-03-11T17:27:38.328Z,22.85
2023-03-11T17:30:11.990Z,22.75
2023-03-11T17:32:43.902Z,23.75
2023-03-11T17:35:15.896Z,26.05
2023-03-11T17:37:47.766Z,25.15
2023-03-11T17:40:19.751Z,26.67
2023-03-11T17:42:51.950Z,26.30
2023-03-11T17:45:24.108Z,23.75
2023-03-11T17:47:56.340Z,23.88
2023-03-11T17:50:30.841Z,22.77
2023-03-11T17:53:03.727Z,25.17
2023-03-11T17:55:42.685Z,24.63
2023-03-11T17:58:15.172Z,27.45
2023-03-11T18:00:47.131Z,27.30
2023-03-11T18:03:19.167Z,23.60
2023-03-11T18:06:02.302Z,20.67
2023-03-11T18:08:35.462Z,23.27
2023-03-11T18:11:11.359Z,22.70
2023-03-11T18:13:43.533Z,21.63
2023-03-11T18:16:23.910Z,24.48
2023-03-11T18:18:58.754Z,27.53
2023-03-11T18:21:30.930Z,26.13
2023-03-11T18:24:02.848Z,28.38
2023-03-11T18:26:34.694Z,23.20
2023-03-11T18:29:08.832Z,24.60
2023-03-11T18:31:40.862Z,26.63
2023-03-11T18:34:14.234Z,24.58
2023-03-11T18:36:49.094Z,25.60
2023-03-11T18:39:20.952Z,28.27
2023-03-11T18:41:52.818Z,23.38
2023-03-11T18:44:24.647Z,25.73
2023-03-11T18:46:56.511Z,27.98
2023-03-11T18:49:29.146Z,26.95
2023-03-11T18:52:01.153Z,26.63
2023-03-11T18:54:33.068Z,25.17
2023-03-11T18:57:04.958Z,28.33
2023-03-11T18:59:39.510Z,24.00
2023-03-11T19:02:12.471Z,25.48
2023-03-11T19:04:44.680Z,26.05
2023-03-11T19:07:20.535Z,24.70
2023-03-11T19:09:53.749Z,23.05
2023-03-11T19:12:29.211Z,20.35
2023-03-11T19:15:01.031Z,19.38
2023-03-11T19:17:33.513Z,23.15
2023-03-11T19:20:08.778Z,17.75
2023-03-11T19:22:40.789Z,19.08
2023-03-11T19:25:12.610Z,18.95
2023-03-11T19:27:44.540Z,20.65
2023-03-11T19:30:16.519Z,17.17
2023-03-11T19:32:54.057Z,18.60
2023-03-11T19:35:26.385Z,22.38
2023-03-11T19:37:59.363Z,19.35
2023-03-11T19:40:31.687Z,23.97
2023-03-11T19:43:04.801Z,17.80
2023-03-11T19:45:39.763Z,18.85
2023-03-11T19:48:13.259Z,18.15
2023-03-11T19:50:45.463Z,21.40
2023-03-11T19:53:18.053Z,24.25
2023-03-11T19:55:52.322Z,18.85
2023-03-11T19:58:28.673Z,20.60
2023-03-11T20:01:02.190Z,17.52
2023-03-11T20:03:34.240Z,19.77
2023-03-11T20:06:06.835Z,19.92
2023-03-11T20:08:39.034Z,17.95
2023-03-11T20:11:10.878Z,18.15
2023-03-11T20:13:44.049Z,18.85
2023-03-11T20:16:19.066Z,15.63
2023-03-11T20:18:51.544Z,19.00
2023-03-11T20:21:23.563Z,16.23
2023-03-11T20:23:56.241Z,17.27
2023-03-11T20:26:28.178Z,14.57
2023-03-11T20:29:00.320Z,20.58
2023-03-11T20:31:32.493Z,21.60
2023-03-11T20:34:04.542Z,19.33
2023-03-11T20:36:36.657Z,22.80
2023-03-11T20:39:10.586Z,19.10
2023-03-11T20:41:43.152Z,20.77
2023-03-11T20:44:15.089Z,27.23
2023-03-11T20:46:47.050Z,29.20
2023-03-11T20:49:18.899Z,30.45
2023-03-11T20:51:50.879Z,33.88
2023-03-11T20:54:22.804Z,35.40
2023-03-11T20:56:54.826Z,32.90
2023-03-11T20:59:26.797Z,26.65
2023-03-11T21:01:58.760Z,23.17
2023-03-11T21:04:30.841Z,26.05
2023-03-11T21:07:03.049Z,23.13
2023-03-11T21:09:34.960Z,23.00
2023-03-11T21:12:06.981Z,18.73
2023-03-11T21:14:38.853Z,20.45
2023-03-11T21:17:10.815Z,19.05
2023-03-11T21:19:43.132Z,19.00
2023-03-11T21:22:14.946Z,15.35
2023-03-11T21:24:54.913Z,18.38
2023-03-11T21:27:27.252Z,18.05
2023-03-11T21:29:59.607Z,17.00
2023-03-11T21:32:31.935Z,20.88
2023-03-11T21:35:05.485Z,14.13
2023-03-11T21:37:37.416Z,14.45
2023-03-11T21:40:10.181Z,15.73
2023-03-11T21:42:42.130Z,17.35
2023-03-11T21:45:13.965Z,10.52
2023-03-11T21:47:45.796Z,12.25
2023-03-11T21:50:17.776Z,12.70
2023-03-11T21:52:49.869Z,14.82
2023-03-11T21:55:21.754Z,10.98
2023-03-11T21:57:53.651Z,10.70
2023-03-11T22:00:28.509Z,10.32
2023-03-11T22:03:00.712Z,10.90
2023-03-11T22:05:32.611Z,15.82
2023-03-11T22:08:04.889Z,11.57
2023-03-11T22:10:37.214Z,12.52
2023-03-11T22:13:09.427Z,11.30
2023-03-11T22:15:41.427Z,13.73
2023-03-11T22:18:13.460Z,16.13
2023-03-11T22:20:46.127Z,13.40
2023-03-11T22:23:18.397Z,13.55
2023-03-11T22:25:50.398Z,15.93
2023-03-11T22:28:22.841Z,12.15
2023-03-11T22:30:54.834Z,14.23
2023-03-11T22:33:27.428Z,16.48
2023-03-11T22:36:00.150Z,17.48
2023-03-11T22:38:34.158Z,15.25
2023-03-11T22:41:07.862Z,11.82
2023-03-11T22:43:40.017Z,12.68
2023-03-11T22:46:12.018Z,16.40
2023-03-11T22:48:43.947Z,11.70
2023-03-11T22:51:15.926Z,13.95
2023-03-11T22:53:49.014Z,9.23
2023-03-11T22:56:21.222Z,10.82
2023-03-11T22:58:53.038Z,11.25
2023-03-11T23:01:25.261Z,11.82
2023-03-11T23:06:31.447Z,13.07
2023-03-11T23:09:05.119Z,11.68
2023-03-11T23:11:37.114Z,11.80
2023-03-11T23:14:08.966Z,14.85
2023-03-11T23:16:41.531Z,11.98
2023-03-11T23:19:13.636Z,7.88
2023-03-11T23:21:45.439Z,14.63
2023-03-11T23:24:17.285Z,14.52
2023-03-11T23:26:49.114Z,12.23
2023-03-11T23:29:20.954Z,11.10
2023-03-11T23:31:52.726Z,12.60
2023-03-11T23:34:25.607Z,13.00
2023-03-11T23:36:57.434Z,11.02
2023-03-11T23:39:29.545Z,10.27
2023-03-11T23:42:04.945Z,9.35
2023-03-11T23:44:40.959Z,9.27
2023-03-11T23:47:12.907Z,10.93
2023-03-11T23:49:44.744Z,6.47
2023-03-11T23:52:16.621Z,6.15
2023-03-11T23:54:48.468Z,6.40
2023-03-11T23:57:20.301Z,6.40
2023-03-11T23:59:52.139Z,10.43
